createdAt,value
2023-04-21T00:01:27.182Z,99.90
2023-04-21T00:03:55.643Z,99.90
2023-04-21T00:06:23.484Z,99.90
2023-04-21T00:08:51.105Z,99.90
2023-04-21T00:11:20.712Z,99.90
2023-04-21T00:13:47.629Z,99.90
2023-04-21T00:16:14.560Z,99.90
2023-04-21T00:18:43.323Z,99.90
2023-04-21T00:21:10.573Z,99.90
2023-04-21T00:23:37.476Z,99.90
2023-04-21T00:26:04.630Z,99.90
2023-04-21T00:28:32.093Z,99.90
2023-04-21T00:30:59.877Z,99.90
2023-04-21T00:33:28.605Z,99.90
2023-04-21T00:35:59.070Z,99.90
2023-04-21T00:38:27.683Z,99.90
2023-04-21T00:40:54.594Z,99.90
2023-04-21T00:43:21.822Z,99.90
2023-04-21T00:45:50.070Z,99.90
2023-04-21T00:48:17.678Z,99.90
2023-04-21T00:50:45.429Z,99.90
2023-04-21T00:53:15.877Z,99.90
2023-04-21T00:55:43.028Z,99.90
2023-04-21T00:58:10.001Z,99.90
2023-04-21T01:00:38.351Z,99.90
2023-04-21T01:03:06.798Z,99.90
2023-04-21T01:05:34.213Z,99.90
2023-04-21T01:08:02.366Z,99.90
2023-04-21T01:10:30.047Z,99.90
2023-04-21T01:12:56.993Z,99.90
2023-04-21T01:15:28.443Z,99.90
2023-04-21T01:17:55.427Z,99.90
2023-04-21T01:20:22.370Z,99.90
2023-04-21T01:22:51.271Z,99.90
2023-04-21T01:25:18.959Z,99.90
2023-04-21T01:27:46.065Z,99.90
2023-04-21T01:30:14.245Z,99.90
2023-04-21T01:32:42.787Z,99.90
2023-04-21T01:35:14.483Z,99.90
2023-04-21T01:37:44.720Z,99.90
2023-04-21T01:40:16.476Z,99.90
2023-04-21T01:42:45.975Z,99.90
2023-04-21T01:45:18.238Z,99.90
2023-04-21T01:47:50.882Z,99.90
2023-04-21T01:50:22.851Z,99.90
2023-04-21T01:52:52.942Z,99.90
2023-04-21T01:55:23.423Z,99.90
2023-04-21T01:57:55.266Z,99.90
2023-04-21T02:00:29.792Z,99.90
2023-04-21T02:02:59.343Z,99.90
2023-04-21T02:05:29.184Z,99.90
2023-04-21T02:07:58.933Z,99.90
2023-04-21T02:10:27.800Z,99.90
2023-04-21T02:12:56.777Z,99.90
2023-04-21T02:15:25.228Z,99.90
2023-04-21T02:17:56.925Z,99.90
2023-04-21T02:20:30.982Z,99.90
2023-04-21T02:22:59.097Z,99.90
2023-04-21T02:25:33.104Z,99.90
2023-04-21T02:28:05.445Z,99.90
2023-04-21T02:30:34.376Z,99.90
2023-04-21T02:33:05.568Z,99.90
2023-04-21T02:35:35.974Z,99.90
2023-04-21T02:38:10.752Z,99.90
2023-04-21T02:40:40.817Z,99.90
2023-04-21T02:43:16.047Z,99.90
2023-04-21T02:45:44.740Z,99.90
2023-04-21T02:48:14.808Z,99.90
2023-04-21T02:50:50.334Z,99.90
2023-04-21T02:53:19.630Z,99.90
2023-04-21T02:55:47.054Z,99.90
2023-04-21T02:58:18.223Z,99.90
2023-04-21T03:00:45.974Z,99.90
2023-04-21T03:03:20.267Z,99.90
2023-04-21T03:05:48.787Z,99.90
2023-04-21T03:08:19.784Z,99.90
2023-04-21T03:10:52.573Z,99.90
2023-04-21T03:13:26.118Z,99.90
2023-04-21T03:15:57.494Z,99.90
2023-04-21T03:18:27.269Z,99.90
2023-04-21T03:21:00.231Z,99.90
2023-04-21T03:23:30.684Z,99.90
2023-04-21T03:25:59.902Z,99.90
2023-04-21T03:28:30.775Z,99.90
2023-04-21T03:33:45.245Z,99.90
2023-04-21T03:36:18.041Z,99.90
2023-04-21T03:38:51.430Z,99.90
2023-04-21T03:41:18.787Z,99.90
2023-04-21T03:43:47.010Z,99.90
2023-04-21T03:46:23.030Z,99.90
2023-04-21T03:48:50.448Z,99.90
2023-04-21T03:51:17.819Z,99.90
2023-04-21T03:53:44.770Z,99.90
2023-04-21T03:56:16.672Z,99.90
2023-04-21T03:58:43.570Z,99.90
2023-04-21T04:01:10.478Z,99.90
2023-04-21T04:03:37.584Z,99.90
2023-04-21T04:06:04.989Z,99.90
2023-04-21T04:08:33.739Z,99.90
2023-04-21T04:11:00.738Z,99.90
2023-04-21T04:13:29.457Z,99.90
2023-04-21T04:15:56.456Z,99.90
2023-04-21T04:18:23.470Z,99.90
2023-04-21T04:20:50.483Z,99.90
2023-04-21T04:23:17.487Z,99.90
2023-04-21T04:25:44.875Z,99.90
2023-04-21T04:28:12.709Z,99.90
2023-04-21T04:30:39.766Z,99.90
2023-04-21T04:33:06.930Z,99.90
2023-04-21T04:35:34.050Z,99.90
2023-04-21T04:38:02.458Z,99.90
2023-04-21T04:40:30.464Z,99.90
2023-04-21T04:42:58.142Z,99.90
2023-04-21T04:45:27.144Z,99.90
2023-04-21T04:47:54.152Z,99.90
2023-04-21T04:50:21.389Z,99.90
2023-04-21T04:52:49.772Z,99.90
2023-04-21T04:55:18.843Z,99.90
2023-04-21T04:57:46.149Z,99.90
2023-04-21T05:00:14.794Z,99.90
2023-04-21T05:02:42.116Z,99.90
2023-04-21T05:05:09.313Z,99.90
2023-04-21T05:07:36.925Z,99.90
2023-04-21T05:10:04.778Z,99.90
2023-04-21T05:12:32.745Z,99.90
2023-04-21T05:14:59.714Z,99.90
2023-04-21T05:17:27.361Z,99.90
2023-04-21T05:19:54.527Z,99.90
2023-04-21T05:22:21.480Z,99.90
2023-04-21T05:24:48.654Z,99.90
2023-04-21T05:27:15.718Z,99.90
2023-04-21T05:29:42.638Z,99.90
2023-04-21T05:32:12.343Z,99.90
2023-04-21T05:34:40.175Z,99.90
2023-04-21T05:37:07.183Z,99.90
2023-04-21T05:39:34.108Z,99.90
2023-04-21T05:42:02.435Z,99.90
2023-04-21T05:44:31.411Z,99.90
2023-04-21T05:46:58.811Z,99.90
2023-04-21T05:49:25.974Z,99.90
2023-04-21T05:51:53.377Z,99.90
2023-04-21T05:54:20.630Z,99.90
2023-04-21T05:56:48.475Z,99.90
2023-04-21T05:59:15.899Z,99.90
2023-04-21T06:01:44.131Z,99.90
2023-04-21T06:04:11.375Z,99.90
2023-04-21T06:06:38.779Z,99.90
2023-04-21T06:09:06.515Z,99.90
2023-04-21T06:11:33.570Z,99.90
2023-04-21T06:14:02.058Z,99.90
2023-04-21T06:16:32.208Z,99.90
2023-04-21T06:19:00.392Z,99.90
2023-04-21T06:21:30.169Z,99.90
2023-04-21T06:23:57.192Z,99.90
2023-04-21T06:26:24.241Z,99.90
2023-04-21T06:28:51.415Z,99.90
2023-04-21T06:31:19.871Z,99.90
2023-04-21T06:33:48.114Z,99.90
2023-04-21T06:36:16.202Z,99.90
2023-04-21T06:38:45.970Z,99.90
2023-04-21T06:41:14.705Z,99.90
2023-04-21T06:43:42.184Z,99.90
2023-04-21T06:46:09.360Z,99.90
2023-04-21T06:48:38.410Z,99.90
2023-04-21T06:51:05.454Z,99.90
2023-04-21T06:53:32.564Z,99.90
2023-04-21T06:55:59.556Z,99.90
2023-04-21T06:58:26.658Z,99.90
2023-04-21T07:00:53.689Z,99.90
2023-04-21T07:03:21.030Z,99.90
2023-04-21T07:05:48.303Z,99.90
2023-04-21T07:08:15.328Z,99.90
2023-04-21T07:10:42.356Z,99.90
2023-04-21T07:13:10.071Z,99.90
2023-04-21T07:15:37.213Z,99.90
2023-04-21T07:18:04.403Z,99.90
2023-04-21T07:20:31.908Z,99.90
2023-04-21T07:22:58.857Z,99.90
2023-04-21T07:25:26.234Z,99.90
2023-04-21T07:27:53.848Z,99.90
2023-04-21T07:30:20.955Z,99.90
2023-04-21T07:32:47.916Z,99.90
2023-04-21T07:35:17.739Z,99.90
2023-04-21T07:37:45.316Z,99.90
2023-04-21T07:40:12.844Z,99.90
2023-04-21T07:42:40.840Z,99.90
2023-04-21T07:45:08.259Z,99.90
2023-04-21T07:47:35.352Z,99.90
2023-04-21T07:50:02.548Z,99.90
2023-04-21T07:52:29.552Z,99.90
2023-04-21T07:54:56.524Z,99.90
2023-04-21T07:57:23.452Z,99.90
2023-04-21T07:59:50.490Z,99.90
2023-04-21T08:02:18.141Z,99.90
2023-04-21T08:04:45.214Z,99.90
2023-04-21T08:07:18.461Z,99.90
2023-04-21T08:09:45.989Z,99.90
2023-04-21T08:12:15.326Z,99.90
2023-04-21T08:14:44.008Z,99.90
2023-04-21T08:17:11.079Z,99.90
2023-04-21T08:19:38.008Z,99.90
2023-04-21T08:22:06.630Z,99.90
2023-04-21T08:24:34.815Z,99.90
2023-04-21T08:27:05.458Z,99.90
2023-04-21T08:29:32.946Z,99.90
2023-04-21T08:32:00.013Z,99.90
2023-04-21T08:34:27.872Z,99.90
2023-04-21T08:36:55.109Z,99.90
2023-04-21T08:39:23.145Z,99.90
2023-04-21T08:41:51.897Z,99.90
2023-04-21T08:44:19.725Z,99.90
2023-04-21T08:46:52.872Z,99.90
2023-04-21T08:49:21.643Z,99.90
2023-04-21T08:51:48.835Z,99.90
2023-04-21T08:54:17.541Z,99.90
2023-04-21T08:56:44.430Z,99.90
2023-04-21T08:59:11.449Z,99.90
2023-04-21T09:02:09.955Z,99.90
2023-04-21T09:04:42.066Z,99.90
2023-04-21T09:07:09.547Z,99.90
2023-04-21T09:09:57.326Z,99.90
2023-04-21T09:12:24.856Z,99.90
2023-04-21T09:14:51.832Z,99.90
2023-04-21T09:17:21.124Z,99.90
2023-04-21T09:19:48.983Z,99.90
2023-04-21T09:22:17.922Z,99.90
2023-04-21T09:24:47.096Z,99.90
2023-04-21T09:27:16.871Z,99.90
2023-04-21T09:29:50.836Z,99.90
2023-04-21T09:32:22.133Z,99.90
2023-04-21T09:34:49.890Z,99.90
2023-04-21T09:37:19.166Z,99.90
2023-04-21T09:40:03.616Z,99.90
2023-04-21T09:42:35.486Z,99.90
2023-04-21T09:47:40.167Z,99.90
2023-04-21T09:50:12.899Z,99.90
2023-04-21T09:52:40.464Z,99.90
2023-04-21T09:55:13.710Z,99.90
2023-04-21T09:57:44.972Z,99.90
2023-04-21T10:00:13.855Z,99.90
2023-04-21T10:02:45.228Z,99.80
2023-04-21T10:05:13.196Z,98.20
2023-04-21T10:07:42.815Z,97.70
2023-04-21T10:10:22.875Z,97.70
2023-04-21T10:12:51.230Z,97.50
2023-04-21T10:15:36.075Z,98.50
2023-04-21T10:18:22.766Z,95.40
2023-04-21T10:21:04.292Z,96.10
2023-04-21T10:23:46.512Z,95.80
2023-04-21T10:26:23.061Z,95.20
2023-04-21T10:29:04.020Z,95.10
2023-04-21T10:31:35.761Z,94.40
2023-04-21T10:34:08.644Z,94.40
2023-04-21T10:36:42.619Z,95.70
2023-04-21T10:39:12.379Z,97.70
2023-04-21T10:41:39.515Z,97.00
2023-04-21T10:44:14.452Z,97.10
2023-04-21T10:46:49.604Z,96.50
2023-04-21T10:49:30.694Z,95.20
2023-04-21T10:52:17.589Z,96.40
2023-04-21T10:54:56.512Z,95.40
2023-04-21T10:57:26.939Z,94.50
2023-04-21T10:59:56.681Z,94.20
2023-04-21T11:02:25.088Z,93.80
2023-04-21T11:04:57.260Z,92.20
2023-04-21T11:07:25.402Z,91.50
2023-04-21T11:10:02.452Z,90.90
2023-04-21T11:12:31.568Z,91.10
2023-04-21T11:14:58.783Z,91.70
2023-04-21T11:17:26.575Z,93.80
2023-04-21T11:19:55.611Z,93.80
2023-04-21T11:22:25.142Z,93.70
2023-04-21T11:24:55.868Z,94.80
2023-04-21T11:27:23.564Z,94.40
2023-04-21T11:29:51.214Z,94.60
2023-04-21T11:32:19.559Z,93.80
2023-04-21T11:34:48.037Z,92.70
2023-04-21T11:37:20.891Z,92.90
2023-04-21T11:39:48.973Z,92.60
2023-04-21T11:42:23.320Z,93.30
2023-04-21T11:44:50.313Z,92.30
2023-04-21T11:47:37.657Z,92.70
2023-04-21T11:50:05.355Z,90.90
2023-04-21T11:52:36.562Z,90.70
2023-04-21T11:55:12.162Z,91.20
2023-04-21T11:57:41.115Z,91.30
2023-04-21T12:00:16.607Z,91.50
2023-04-21T12:02:44.354Z,91.30
2023-04-21T12:05:13.918Z,92.60
2023-04-21T12:07:44.108Z,91.10
2023-04-21T12:10:17.554Z,90.70
2023-04-21T12:12:46.263Z,90.00
2023-04-21T12:15:21.096Z,89.20
2023-04-21T12:17:50.964Z,90.00
2023-04-21T12:20:20.644Z,89.30
2023-04-21T12:22:48.415Z,88.50
2023-04-21T12:25:16.005Z,87.60
2023-04-21T12:27:54.193Z,89.10
2023-04-21T12:30:21.996Z,90.10
2023-04-21T12:32:49.294Z,86.50
2023-04-21T12:35:16.470Z,87.70
2023-04-21T12:37:45.093Z,87.20
2023-04-21T12:40:12.269Z,87.10
2023-04-21T12:42:40.774Z,87.20
2023-04-21T12:45:08.264Z,87.50
2023-04-21T12:47:37.698Z,87.10
2023-04-21T12:50:05.602Z,87.50
2023-04-21T12:52:32.560Z,85.50
2023-04-21T12:55:00.571Z,83.40
2023-04-21T12:57:27.628Z,84.10
2023-04-21T12:59:55.171Z,87.30
2023-04-21T13:02:22.729Z,84.20
2023-04-21T13:04:50.629Z,84.70
2023-04-21T13:07:22.888Z,82.50
2023-04-21T13:09:49.926Z,81.00
2023-04-21T13:12:17.816Z,84.80
2023-04-21T13:14:47.449Z,82.20
2023-04-21T13:17:17.017Z,82.10
2023-04-21T13:19:44.721Z,81.40
2023-04-21T13:22:11.844Z,82.10
2023-04-21T13:24:41.380Z,83.60
2023-04-21T13:27:08.617Z,80.30
2023-04-21T13:29:36.029Z,81.50
2023-04-21T13:32:05.395Z,78.60
2023-04-21T13:34:35.895Z,79.30
2023-04-21T13:37:04.909Z,79.20
2023-04-21T13:39:32.317Z,77.60
2023-04-21T13:42:00.584Z,77.70
2023-04-21T13:44:27.510Z,77.50
2023-04-21T13:46:58.775Z,77.40
2023-04-21T13:53:58.901Z,77.60
2023-04-21T13:56:26.247Z,74.10
2023-04-21T13:58:54.279Z,75.40
2023-04-21T14:01:21.989Z,76.80
2023-04-21T14:03:50.896Z,77.20
2023-04-21T14:06:20.209Z,78.10
2023-04-21T14:08:47.215Z,79.10
2023-04-21T14:11:14.899Z,79.00
2023-04-21T14:13:51.953Z,79.40
2023-04-21T14:16:29.018Z,79.20
2023-04-21T14:18:57.121Z,76.20
2023-04-21T14:21:24.299Z,77.80
2023-04-21T14:23:53.912Z,75.60
2023-04-21T14:26:22.455Z,76.60
2023-04-21T14:28:50.933Z,76.80
2023-04-21T14:31:19.679Z,78.10
2023-04-21T14:33:49.108Z,77.70
2023-04-21T14:36:16.267Z,77.20
2023-04-21T14:38:43.307Z,77.80
2023-04-21T14:41:10.465Z,76.20
2023-04-21T14:43:39.188Z,75.00
2023-04-21T14:46:07.536Z,75.90
2023-04-21T14:48:34.973Z,76.10
2023-04-21T14:51:02.125Z,76.60
2023-04-21T14:53:29.213Z,77.20
2023-04-21T14:55:56.278Z,77.00
2023-04-21T14:58:23.444Z,77.30
2023-04-21T15:00:51.274Z,79.40
2023-04-21T15:03:18.463Z,79.80
2023-04-21T15:05:48.368Z,79.00
2023-04-21T15:08:18.332Z,80.70
2023-04-21T15:10:45.457Z,81.50
2023-04-21T15:13:14.753Z,81.90
2023-04-21T15:15:41.700Z,80.50
2023-04-21T15:18:08.852Z,80.90
2023-04-21T15:20:44.579Z,80.90
2023-04-21T15:23:16.190Z,81.10
2023-04-21T15:25:44.717Z,82.00
2023-04-21T15:28:13.926Z,81.40
2023-04-21T15:30:41.513Z,82.40
2023-04-21T15:33:09.042Z,84.50
2023-04-21T15:35:36.432Z,84.90
2023-04-21T15:38:04.081Z,85.10
2023-04-21T15:40:31.063Z,86.60
2023-04-21T15:43:00.005Z,85.80
2023-04-21T15:45:28.546Z,86.30
2023-04-21T15:47:55.890Z,84.00
2023-04-21T15:50:22.867Z,85.70
2023-04-21T15:52:50.220Z,85.60
2023-04-21T15:55:17.659Z,85.50
2023-04-21T15:57:45.860Z,84.50
2023-04-21T16:00:16.321Z,85.10
2023-04-21T16:02:43.428Z,84.60
2023-04-21T16:05:10.874Z,84.90
2023-04-21T16:07:37.994Z,86.00
2023-04-21T16:10:05.855Z,86.10
2023-04-21T16:12:32.799Z,89.20
2023-04-21T16:15:09.365Z,87.80
2023-04-21T16:17:49.381Z,85.50
2023-04-21T16:20:16.605Z,86.30
2023-04-21T16:22:43.691Z,86.90
2023-04-21T16:25:17.097Z,86.10
2023-04-21T16:27:44.313Z,86.40
2023-04-21T16:30:12.175Z,86.50
2023-04-21T16:32:39.449Z,86.30
2023-04-21T16:35:10.065Z,86.20
2023-04-21T16:37:44.590Z,86.00
2023-04-21T16:40:12.982Z,85.00
2023-04-21T16:42:40.030Z,85.60
2023-04-21T16:45:09.029Z,85.60
2023-04-21T16:47:41.642Z,86.50
2023-04-21T16:50:10.363Z,87.00
2023-04-21T16:52:37.569Z,87.60
2023-04-21T16:55:06.448Z,87.70
2023-04-21T16:57:34.391Z,87.10
2023-04-21T17:00:01.870Z,86.30
2023-04-21T17:02:28.857Z,87.80
2023-04-21T17:04:55.987Z,88.00
2023-04-21T17:07:22.896Z,88.10
2023-04-21T17:09:51.274Z,86.80
2023-04-21T17:12:19.444Z,88.10
2023-04-21T17:14:46.926Z,88.20
2023-04-21T17:17:14.055Z,87.90
2023-04-21T17:19:41.312Z,87.30
2023-04-21T17:22:08.742Z,87.90
2023-04-21T17:24:51.806Z,88.40
2023-04-21T17:27:21.107Z,88.40
2023-04-21T17:29:48.502Z,87.90
2023-04-21T17:32:15.774Z,88.60
2023-04-21T17:34:44.480Z,88.90
2023-04-21T17:37:13.896Z,88.90
2023-04-21T17:39:41.095Z,90.20
2023-04-21T17:42:08.122Z,90.20
2023-04-21T17:44:35.560Z,90.30
2023-04-21T17:47:08.099Z,90.70
2023-04-21T17:49:37.095Z,91.40
2023-04-21T17:52:05.898Z,91.60
2023-04-21T17:54:34.960Z,92.10
2023-04-21T17:57:03.416Z,93.40
2023-04-21T17:59:30.951Z,94.40
2023-04-21T18:02:01.958Z,95.40
2023-04-21T18:04:31.091Z,95.80
2023-04-21T18:07:03.754Z,96.40
2023-04-21T18:09:31.681Z,96.60
2023-04-21T18:11:59.890Z,97.20
2023-04-21T18:14:27.949Z,97.70
2023-04-21T18:16:55.035Z,98.30
2023-04-21T18:19:22.152Z,98.40
2023-04-21T18:21:50.081Z,99.10
2023-04-21T18:24:17.266Z,99.50
2023-04-21T18:26:45.402Z,99.50
2023-04-21T18:29:12.530Z,99.60
2023-04-21T18:31:41.278Z,99.40
2023-04-21T18:34:09.136Z,99.80
2023-04-21T18:36:38.617Z,99.60
2023-04-21T18:39:07.868Z,99.90
2023-04-21T18:41:34.842Z,99.90
2023-04-21T18:44:06.842Z,99.90
2023-04-21T18:46:35.290Z,99.90
2023-04-21T18:49:02.658Z,99.90
2023-04-21T18:51:32.298Z,99.90
2023-04-21T18:54:00.594Z,99.90
2023-04-21T18:56:30.747Z,99.90
2023-04-21T18:58:59.918Z,99.90
2023-04-21T19:01:31.071Z,99.90
2023-04-21T19:03:59.637Z,99.90
2023-04-21T19:06:28.086Z,99.90
2023-04-21T19:08:57.373Z,99.90
2023-04-21T19:11:33.492Z,99.90
2023-04-21T19:14:01.829Z,99.90
2023-04-21T19:16:29.334Z,99.90
2023-04-21T19:18:59.628Z,99.90
2023-04-21T19:21:26.734Z,99.90
2023-04-21T19:23:55.046Z,99.90
2023-04-21T19:26:24.060Z,99.90
2023-04-21T19:28:53.715Z,99.90
2023-04-21T19:31:23.381Z,99.90
2023-04-21T19:33:50.979Z,99.90
2023-04-21T19:36:21.321Z,99.90
2023-04-21T19:38:49.109Z,99.90
2023-04-21T19:41:16.568Z,99.90
2023-04-21T19:43:45.947Z,99.90
2023-04-21T19:46:14.469Z,99.90
2023-04-21T19:48:42.857Z,99.90
2023-04-21T19:51:11.139Z,99.90
2023-04-21T19:53:38.605Z,99.90
2023-04-21T19:56:08.059Z,99.90
2023-04-21T19:58:40.745Z,99.90
2023-04-21T20:01:08.463Z,99.90
2023-04-21T20:03:37.369Z,99.90
2023-04-21T20:06:05.285Z,99.90
2023-04-21T20:08:32.729Z,99.90
2023-04-21T20:11:01.281Z,99.90
2023-04-21T20:13:31.546Z,99.90
2023-04-21T20:15:59.679Z,99.90
2023-04-21T20:18:27.773Z,99.90
2023-04-21T20:20:55.013Z,99.90
2023-04-21T20:23:22.006Z,99.90
2023-04-21T20:25:49.717Z,99.90
2023-04-21T20:28:18.336Z,99.90
2023-04-21T20:30:45.934Z,99.90
2023-04-21T20:33:18.311Z,99.90
2023-04-21T20:35:49.582Z,99.90
2023-04-21T20:38:19.210Z,99.90
2023-04-21T20:40:50.412Z,99.90
2023-04-21T20:43:18.974Z,99.90
2023-04-21T20:45:47.539Z,99.90
2023-04-21T20:48:14.662Z,99.90
2023-04-21T20:50:45.996Z,99.90
2023-04-21T20:53:13.841Z,99.90
2023-04-21T20:55:40.811Z,99.90
2023-04-21T20:58:07.916Z,99.90
2023-04-21T21:00:36.981Z,99.90
2023-04-21T21:03:05.675Z,99.90
2023-04-21T21:05:34.194Z,99.90
2023-04-21T21:08:02.416Z,99.90
2023-04-21T21:10:31.020Z,99.90
2023-04-21T21:12:59.612Z,99.90
2023-04-21T21:15:32.753Z,99.90
2023-04-21T21:18:00.241Z,99.90
2023-04-21T21:20:28.390Z,99.90
2023-04-21T21:22:55.476Z,99.90
2023-04-21T21:25:22.576Z,99.90
2023-04-21T21:27:50.123Z,99.90
2023-04-21T21:30:17.445Z,99.90
2023-04-21T21:32:46.615Z,99.90
2023-04-21T21:35:16.144Z,99.90
2023-04-21T21:37:43.156Z,99.90
2023-04-21T21:40:11.610Z,99.90
2023-04-21T21:42:39.609Z,99.90
2023-04-21T21:45:08.575Z,99.90
2023-04-21T21:47:40.304Z,99.90
2023-04-21T21:50:09.521Z,99.90
2023-04-21T21:52:36.587Z,99.90
2023-04-21T21:55:05.702Z,99.90
2023-04-21T21:57:32.824Z,99.90
2023-04-21T22:00:01.965Z,99.90
2023-04-21T22:02:32.187Z,99.90
2023-04-21T22:04:59.658Z,99.90
2023-04-21T22:07:27.024Z,99.90
2023-04-21T22:09:54.001Z,99.90
2023-04-21T22:12:20.939Z,99.90
2023-04-21T22:14:52.233Z,99.90
2023-04-21T22:17:20.281Z,99.90
2023-04-21T22:19:47.255Z,99.90
2023-04-21T22:22:14.280Z,99.90
2023-04-21T22:24:41.237Z,99.90
2023-04-21T22:27:09.289Z,99.90
2023-04-21T22:29:36.500Z,99.90
2023-04-21T22:32:05.946Z,99.90
2023-04-21T22:34:32.881Z,99.90
2023-04-21T22:37:02.247Z,99.90
2023-04-21T22:39:29.371Z,99.90
2023-04-21T22:41:58.304Z,99.90
2023-04-21T22:44:25.477Z,99.90
2023-04-21T22:46:52.471Z,99.90
2023-04-21T22:49:20.141Z,99.90
2023-04-21T22:51:47.389Z,99.90
2023-04-21T22:54:15.406Z,99.90
2023-04-21T22:56:42.493Z,99.90
2023-04-21T22:59:09.446Z,99.90
2023-04-21T23:01:36.643Z,99.90
2023-04-21T23:04:03.771Z,99.90
2023-04-21T23:06:32.820Z,99.90
2023-04-21T23:09:00.055Z,99.90
2023-04-21T23:11:27.285Z,99.90
2023-04-21T23:13:55.797Z,99.90
2023-04-21T23:16:24.027Z,99.90
2023-04-21T23:18:55.870Z,99.90
2023-04-21T23:21:26.756Z,99.90
2023-04-21T23:23:54.852Z,99.90
2023-04-21T23:26:24.156Z,99.90
2023-04-21T23:28:53.709Z,99.90
2023-04-21T23:31:24.573Z,99.90
2023-04-21T23:33:53.985Z,99.90
2023-04-21T23:36:20.932Z,99.90
2023-04-21T23:38:52.265Z,99.90
2023-04-21T23:41:30.036Z,99.90
2023-04-21T23:43:58.776Z,99.90
2023-04-21T23:46:30.714Z,99.90
2023-04-21T23:48:59.805Z,99.90
2023-04-21T23:51:28.264Z,99.90
2023-04-21T23:53:56.648Z,99.90
2023-04-21T23:56:28.138Z,99.90
2023-04-21T23:58:56.736Z,99.90
